Time;durP1;ratioP1;P1;durP2;ratioP2;P2;SDS_P1;SDS_P2;PMS_P1;PMS_P2;Temp;Humidity;BMP_temperature;BMP_pressure;BME280_temperature;BME280_humidity;BME280_pressure;Samples;Min_cycle;Max_cycle;Signal;HPM_P1;HPM_P2
2022/01/29 00:00:23;;;;;;;19.52;5.28;;;;;;;1.57;nan;101296.28;5011483;28;20033;-74
2022/01/29 00:02:49;;;;;;;12.90;4.40;;;;;;;1.63;nan;101300.91;5013099;28;20030;-74
2022/01/29 00:05:14;;;;;;;9.82;3.88;;;;;;;1.57;nan;101287.69;4997941;28;20123;-73
2022/01/29 00:07:42;;;;;;;9.98;3.85;;;;;;;1.67;nan;101306.63;4998276;28;20376;-75
2022/01/29 00:10:09;;;;;;;12.15;4.90;;;;;;;1.76;nan;101312.75;5031868;28;20029;-75
2022/01/29 00:12:35;;;;;;;15.00;4.75;;;;;;;1.78;nan;101318.63;5032352;28;20068;-71
2022/01/29 00:15:00;;;;;;;14.25;4.50;;;;;;;1.68;nan;101303.91;5031937;28;20116;-72
2022/01/29 00:17:26;;;;;;;15.82;4.72;;;;;;;1.43;nan;101273.41;5034161;28;20115;-71
2022/01/29 00:19:52;;;;;;;13.15;4.65;;;;;;;1.70;nan;101311.56;5032090;28;20034;-71
2022/01/29 00:22:17;;;;;;;11.15;4.45;;;;;;;1.57;nan;101305.84;5031695;28;20049;-70
2022/01/29 00:24:43;;;;;;;13.02;4.43;;;;;;;1.64;nan;101314.72;5031908;28;20038;-70
2022/01/29 00:27:10;;;;;;;11.68;4.53;;;;;;;0.85;nan;101194.03;5025105;28;20030;-71
2022/01/29 00:29:39;;;;;;;11.85;5.07;;;;;;;1.54;nan;101311.34;5025918;28;20070;-71
2022/01/29 00:32:09;;;;;;;16.80;5.75;;;;;;;1.62;nan;101329.59;5041184;28;20039;-72
2022/01/29 00:34:35;;;;;;;16.42;4.28;;;;;;;1.59;nan;101325.53;5052120;28;20776;-72
2022/01/29 00:37:01;;;;;;;9.40;4.70;;;;;;;1.59;nan;101338.50;5032685;28;20444;-71
2022/01/29 00:39:26;;;;;;;11.20;4.85;;;;;;;1.46;nan;101327.59;5010594;28;20069;-70
2022/01/29 00:41:52;;;;;;;16.40;5.45;;;;;;;1.52;nan;101352.19;5012222;28;20065;-71
2022/01/29 00:44:17;;;;;;;10.82;5.78;;;;;;;1.47;nan;101348.25;5020509;28;20063;-71
2022/01/29 00:46:43;;;;;;;17.88;5.05;;;;;;;1.49;nan;101361.09;5012979;28;20096;-71
2022/01/29 00:49:09;;;;;;;9.98;4.30;;;;;;;1.43;nan;101354.66;5014220;28;20042;-72
2022/01/29 00:51:34;;;;;;;10.32;4.78;;;;;;;1.40;nan;101357.56;5022453;28;20052;-70
2022/01/29 00:54:00;;;;;;;9.82;4.38;;;;;;;1.33;nan;101351.28;5015878;28;20811;-71
2022/01/29 00:56:25;;;;;;;9.65;4.07;;;;;;;1.40;nan;101364.53;5033231;28;20057;-70
2022/01/29 00:58:51;;;;;;;11.23;4.40;;;;;;;1.39;nan;101376.69;5034201;28;20041;-71
2022/01/29 01:01:16;;;;;;;13.32;4.32;;;;;;;1.33;nan;101366.03;5016864;28;20059;-71
2022/01/29 01:03:42;;;;;;;8.40;3.90;;;;;;;1.35;nan;101374.50;5035514;28;20120;-71
2022/01/29 01:06:07;;;;;;;7.70;3.97;;;;;;;1.34;nan;101378.88;5000801;28;20037;-71
2022/01/29 01:08:32;;;;;;;11.07;4.15;;;;;;;1.24;nan;101378.88;5035154;28;20087;-71
2022/01/29 01:10:58;;;;;;;9.85;3.85;;;;;;;1.27;nan;101383.00;5035350;28;20387;-71
2022/01/29 01:13:24;;;;;;;9.10;3.92;;;;;;;1.22;nan;101386.00;5034933;28;20443;-71
2022/01/29 01:15:49;;;;;;;12.52;4.53;;;;;;;1.16;nan;101376.19;5034454;28;20025;-72
2022/01/29 01:18:14;;;;;;;10.32;3.92;;;;;;;1.16;nan;101381.38;5042166;28;20037;-71
2022/01/29 01:20:40;;;;;;;8.93;4.22;;;;;;;1.11;nan;101373.19;5035113;28;20037;-71
2022/01/29 01:23:05;;;;;;;10.50;4.43;;;;;;;1.03;nan;101367.84;5034601;28;20128;-72
2022/01/29 01:25:31;;;;;;;9.27;4.18;;;;;;;1.08;nan;101377.81;5034317;28;20038;-72
2022/01/29 01:27:56;;;;;;;8.75;4.50;;;;;;;0.90;nan;101352.59;5034781;28;20113;-72
2022/01/29 01:30:22;;;;;;;10.77;5.00;;;;;;;0.63;nan;101317.81;5034656;28;20045;-71
2022/01/29 01:32:48;;;;;;;14.45;5.20;;;;;;;0.96;nan;101375.38;5050371;28;20440;-72
2022/01/29 01:35:20;;;;;;;9.88;4.70;;;;;;;0.93;nan;101378.22;5042300;28;20038;-71
2022/01/29 01:37:55;;;;;;;9.70;3.85;;;;;;;0.88;nan;101362.28;5034646;28;20037;-72
2022/01/29 01:40:22;;;;;;;11.18;4.95;;;;;;;0.93;nan;101367.88;5034476;28;20083;-72
2022/01/29 01:42:47;;;;;;;11.65;5.18;;;;;;;0.97;nan;101376.19;5044257;28;20128;-72
2022/01/29 01:45:13;;;;;;;11.95;4.88;;;;;;;0.60;nan;101327.66;5023089;28;20037;-71
2022/01/29 01:47:39;;;;;;;10.07;5.22;;;;;;;0.94;nan;101379.88;5032530;28;20035;-71
2022/01/29 01:50:07;;;;;;;15.70;6.00;;;;;;;0.89;nan;101371.72;5027473;28;20076;-71
2022/01/29 01:52:32;;;;;;;11.60;5.80;;;;;;;0.86;nan;101374.56;5029469;28;20037;-71
2022/01/29 01:54:58;;;;;;;9.95;5.13;;;;;;;0.81;nan;101369.81;4980611;28;20534;-71
2022/01/29 01:57:24;;;;;;;11.35;4.68;;;;;;;0.71;nan;101353.41;5033971;28;20483;-71
2022/01/29 01:59:49;;;;;;;11.23;5.15;;;;;;;0.76;nan;101363.38;5034154;28;20044;-71
2022/01/29 02:02:14;;;;;;;10.60;4.82;;;;;;;0.76;nan;101371.16;5031533;28;20029;-71
2022/01/29 02:04:40;;;;;;;9.38;4.50;;;;;;;0.76;nan;101365.97;5033973;28;20120;-71
2022/01/29 02:07:06;;;;;;;15.32;5.13;;;;;;;0.83;nan;101375.66;5033932;28;20072;-71
2022/01/29 02:09:32;;;;;;;14.48;4.90;;;;;;;0.74;nan;101370.47;5012734;28;20387;-70
2022/01/29 02:12:02;;;;;;;10.07;4.93;;;;;;;0.77;nan;101378.81;5018613;28;20040;-71
2022/01/29 02:14:31;;;;;;;12.93;5.20;;;;;;;0.78;nan;101382.22;4996575;28;20033;-71
2022/01/29 02:16:57;;;;;;;13.10;5.60;;;;;;;0.75;nan;101390.28;5028006;28;20033;-70
2022/01/29 02:19:22;;;;;;;8.90;4.40;;;;;;;0.46;nan;101348.78;5033245;28;20095;-71
2022/01/29 02:21:48;;;;;;;9.60;4.90;;;;;;;0.73;nan;101399.94;5031032;28;20132;-71
2022/01/29 02:24:13;;;;;;;13.60;4.93;;;;;;;0.46;nan;101351.38;5031663;28;20039;-71
2022/01/29 02:26:39;;;;;;;8.07;4.25;;;;;;;0.76;nan;101405.66;5033180;28;20422;-72
2022/01/29 02:29:05;;;;;;;8.35;4.25;;;;;;;0.75;nan;101403.22;5033382;28;20040;-72
2022/01/29 02:31:30;;;;;;;10.40;4.22;;;;;;;0.75;nan;101398.84;5037598;28;20033;-71
2022/01/29 02:33:56;;;;;;;10.30;4.43;;;;;;;0.76;nan;101397.06;5041630;28;20033;-71
2022/01/29 02:36:22;;;;;;;8.18;4.20;;;;;;;0.67;nan;101382.34;5032428;28;20037;-71
2022/01/29 02:38:47;;;;;;;9.50;3.88;;;;;;;0.74;nan;101384.28;5033494;28;20033;-71
2022/01/29 02:41:13;;;;;;;8.65;3.63;;;;;;;0.75;nan;101406.63;5014784;28;20045;-71
2022/01/29 02:43:47;;;;;;;8.13;3.85;;;;;;;0.75;nan;101408.41;5033020;28;20033;-71
2022/01/29 02:48:43;;;;;;;6.57;3.60;;;;;;;0.60;nan;101400.22;5033381;28;20069;-71
2022/01/29 02:51:09;;;;;;;8.13;4.13;;;;;;;0.71;nan;101413.03;5031271;28;20037;-71
2022/01/29 02:53:35;;;;;;;6.63;3.83;;;;;;;0.68;nan;101402.94;5032034;28;20041;-71
2022/01/29 02:56:00;;;;;;;8.07;3.92;;;;;;;0.66;nan;101412.63;5032668;28;20049;-70
2022/01/29 02:58:26;;;;;;;6.22;4.10;;;;;;;0.60;nan;101403.63;5032449;28;20041;-71
2022/01/29 03:00:52;;;;;;;6.47;4.20;;;;;;;0.74;nan;101443.06;5032348;28;20494;-71
2022/01/29 03:03:17;;;;;;;7.20;4.50;;;;;;;0.71;nan;101435.56;5032813;28;20486;-71
2022/01/29 03:05:43;;;;;;;10.13;4.63;;;;;;;0.77;nan;101445.41;5031991;28;20059;-71
2022/01/29 03:08:08;;;;;;;8.13;4.93;;;;;;;0.73;nan;101433.66;5031970;28;20522;-71
2022/01/29 03:10:34;;;;;;;10.35;4.65;;;;;;;0.82;nan;101446.63;5032703;28;20029;-71
2022/01/29 03:13:00;;;;;;;10.48;5.57;;;;;;;0.77;nan;101448.00;5032519;28;20056;-70
2022/01/29 03:15:25;;;;;;;10.43;4.72;;;;;;;0.66;nan;101433.38;5031077;28;20065;-72
2022/01/29 03:17:50;;;;;;;8.70;4.53;;;;;;;0.61;nan;101431.16;5017383;28;20092;-72
2022/01/29 03:20:16;;;;;;;6.80;3.75;;;;;;;0.72;nan;101445.81;5014799;28;20029;-72
2022/01/29 03:22:41;;;;;;;7.18;3.88;;;;;;;0.73;nan;101452.63;5032529;28;20038;-71
2022/01/29 03:25:09;;;;;;;8.35;4.22;;;;;;;0.46;nan;101405.78;5014607;28;20112;-72
2022/01/29 03:27:34;;;;;;;8.68;4.28;;;;;;;0.65;nan;101452.47;5014648;28;20034;-70
2022/01/29 03:30:01;;;;;;;10.13;4.55;;;;;;;0.58;nan;101439.22;5032521;28;20029;-71
2022/01/29 03:32:27;;;;;;;10.82;4.85;;;;;;;0.67;nan;101449.72;5043411;28;20037;-71
2022/01/29 03:34:52;;;;;;;9.20;4.10;;;;;;;0.66;nan;101450.69;5014590;28;20045;-72
2022/01/29 03:37:18;;;;;;;6.35;3.22;;;;;;;0.62;nan;101455.31;5013289;28;20547;-70
2022/01/29 03:39:45;;;;;;;6.10;3.40;;;;;;;0.64;nan;101453.41;5032698;28;20116;-71
2022/01/29 03:42:12;;;;;;;7.30;3.47;;;;;;;0.62;nan;101450.97;5032502;28;20034;-70
2022/01/29 03:44:39;;;;;;;9.45;3.65;;;;;;;0.68;nan;101441.84;5032267;28;20372;-71
2022/01/29 03:47:04;;;;;;;7.47;3.85;;;;;;;0.58;nan;101417.69;5028504;28;20029;-71
2022/01/29 03:49:30;;;;;;;8.15;3.85;;;;;;;0.64;nan;101445.63;5012502;28;20056;-71
2022/01/29 03:51:56;;;;;;;8.02;4.50;;;;;;;0.66;nan;101453.28;5029924;28;20037;-71
2022/01/29 03:54:21;;;;;;;6.53;4.03;;;;;;;0.61;nan;101458.88;5032302;28;20037;-71
2022/01/29 03:56:47;;;;;;;9.30;4.30;;;;;;;0.57;nan;101457.50;5031992;28;20168;-71
2022/01/29 03:59:12;;;;;;;8.23;3.97;;;;;;;0.58;nan;101459.97;5031789;28;20034;-71
2022/01/29 04:01:37;;;;;;;8.77;4.20;;;;;;;0.58;nan;101457.38;5014157;28;20076;-72
2022/01/29 04:04:03;;;;;;;165.07;33.47;;;;;;;0.59;nan;101469.34;5011326;28;20033;-72
2022/01/29 04:06:30;;;;;;;11.90;5.85;;;;;;;0.79;nan;101469.38;5012587;28;20502;-71
2022/01/29 04:08:55;;;;;;;9.55;5.10;;;;;;;0.68;nan;101452.19;5029555;28;20045;-71
2022/01/29 04:11:22;;;;;;;9.00;4.95;;;;;;;0.62;nan;101463.09;5019834;28;20395;-71
2022/01/29 04:13:48;;;;;;;10.27;4.25;;;;;;;0.60;nan;101478.78;5032140;28;20026;-71
2022/01/29 04:16:15;;;;;;;13.05;4.97;;;;;;;0.64;nan;101484.50;5032010;28;20025;-71
2022/01/29 04:18:41;;;;;;;13.77;4.88;;;;;;;0.58;nan;101474.69;5029894;28;20091;-72
2022/01/29 04:21:08;;;;;;;10.80;4.90;;;;;;;0.50;nan;101471.94;5032522;28;20029;-72
2022/01/29 04:23:35;;;;;;;9.45;4.68;;;;;;;0.62;nan;101486.41;5035020;28;20107;-71
2022/01/29 04:26:02;;;;;;;6.68;4.05;;;;;;;0.58;nan;101483.28;5035574;28;20411;-71
2022/01/29 04:28:37;;;;;;;7.75;4.30;;;;;;;0.58;nan;101488.47;5035435;28;20029;-72
2022/01/29 04:31:10;;;;;;;8.98;4.32;;;;;;;0.62;nan;101495.03;5017936;28;20447;-71
2022/01/29 04:33:35;;;;;;;16.63;5.20;;;;;;;0.62;nan;101494.19;5023781;28;20092;-72
2022/01/29 04:36:04;;;;;;;10.05;4.60;;;;;;;0.62;nan;101499.38;5016241;28;20034;-72
2022/01/29 04:38:30;;;;;;;13.48;4.97;;;;;;;0.58;nan;101498.03;5013736;28;20064;-71
2022/01/29 04:40:58;;;;;;;8.85;4.72;;;;;;;0.58;nan;101506.59;5006662;28;20116;-71
2022/01/29 04:43:24;;;;;;;14.13;5.18;;;;;;;0.54;nan;101494.84;5035463;28;20030;-72
2022/01/29 04:45:49;;;;;;;12.68;5.78;;;;;;;0.52;nan;101494.16;5035691;28;20032;-71
2022/01/29 04:48:15;;;;;;;11.27;5.60;;;;;;;0.56;nan;101502.50;5035397;28;20026;-72
2022/01/29 04:50:41;;;;;;;16.02;5.68;;;;;;;0.33;nan;101463.84;5035123;28;20037;-72
2022/01/29 04:53:07;;;;;;;10.27;5.35;;;;;;;0.64;nan;101513.03;5017561;28;20044;-72
2022/01/29 04:55:33;;;;;;;10.90;5.40;;;;;;;0.62;nan;101531.31;5034978;28;20510;-72
2022/01/29 04:57:58;;;;;;;18.45;6.88;;;;;;;0.52;nan;101512.31;5029224;28;20486;-72
2022/01/29 05:00:24;;;;;;;12.93;5.55;;;;;;;0.47;nan;101501.53;5035198;28;20091;-72
2022/01/29 05:02:52;;;;;;;12.13;5.85;;;;;;;0.60;nan;101532.41;5035415;28;20084;-72
2022/01/29 05:05:18;;;;;;;15.60;5.80;;;;;;;0.53;nan;101529.50;5035036;28;20072;-72
2022/01/29 05:07:44;;;;;;;14.95;5.80;;;;;;;0.52;nan;101525.25;5035097;28;20096;-71
2022/01/29 05:10:10;;;;;;;12.10;5.50;;;;;;;0.55;nan;101537.97;5035257;28;20037;-71
2022/01/29 05:12:51;;;;;;;11.98;6.05;;;;;;;0.51;nan;101530.59;5034939;28;20040;-71
2022/01/29 05:28:37;;;;;;;13.07;6.40;;;;;;;0.39;nan;101541.03;5034244;28;20033;-72
2022/01/29 05:31:03;;;;;;;12.98;6.82;;;;;;;0.29;nan;101536.75;5031480;28;20037;-72
2022/01/29 05:33:28;;;;;;;15.40;7.53;;;;;;;0.31;nan;101533.13;5030072;28;20439;-72
2022/01/29 05:35:53;;;;;;;15.27;8.10;;;;;;;0.28;nan;101528.19;5034910;28;20057;-72
2022/01/29 05:38:19;;;;;;;18.40;7.82;;;;;;;0.33;nan;101536.38;5034145;28;20120;-72
2022/01/29 05:40:45;;;;;;;15.10;7.43;;;;;;;0.04;nan;101504.34;5016769;28;20112;-72
2022/01/29 05:43:10;;;;;;;16.55;7.75;;;;;;;0.31;nan;101545.22;5034484;28;20108;-70
2022/01/29 05:45:35;;;;;;;11.90;6.32;;;;;;;0.27;nan;101549.03;5033343;28;20045;-71
2022/01/29 05:48:01;;;;;;;13.20;6.90;;;;;;;0.27;nan;101556.81;5034069;28;20080;-71
2022/01/29 05:50:26;;;;;;;13.15;6.25;;;;;;;0.20;nan;101559.91;5013143;28;20034;-71
2022/01/29 05:52:52;;;;;;;16.00;7.00;;;;;;;0.18;nan;101550.63;5014513;28;20036;-71
2022/01/29 05:55:17;;;;;;;12.27;7.10;;;;;;;0.09;nan;101552.22;5028091;28;20085;-70
2022/01/29 05:57:43;;;;;;;18.40;8.80;;;;;;;0.16;nan;101561.09;5033187;28;20041;-72
2022/01/29 06:00:09;;;;;;;15.07;8.13;;;;;;;0.12;nan;101564.06;5027986;28;20033;-72
2022/01/29 06:02:35;;;;;;;14.00;7.70;;;;;;;0.07;nan;101561.06;5027160;28;20044;-71
2022/01/29 06:05:00;;;;;;;16.77;7.53;;;;;;;0.16;nan;101589.59;5030904;28;20030;-72
2022/01/29 06:07:25;;;;;;;12.80;7.40;;;;;;;0.09;nan;101585.06;5031901;28;20031;-71
2022/01/29 06:09:51;;;;;;;14.10;6.90;;;;;;;-0.20;nan;101533.91;5028639;28;20033;-71
2022/01/29 06:12:16;;;;;;;11.63;6.30;;;;;;;0.12;nan;101588.22;5030588;28;20040;-70
2022/01/29 06:14:42;;;;;;;14.57;7.07;;;;;;;0.13;nan;101597.63;5030880;28;20037;-71
2022/01/29 06:17:07;;;;;;;13.27;6.55;;;;;;;0.06;nan;101591.31;5035758;28;20030;-71
2022/01/29 06:19:33;;;;;;;13.57;6.32;;;;;;;0.07;nan;101602.50;5032083;28;20037;-70
2022/01/29 06:21:58;;;;;;;15.98;6.85;;;;;;;0.10;nan;101610.03;5030549;28;20034;-70
2022/01/29 06:24:23;;;;;;;15.90;7.10;;;;;;;0.09;nan;101616.94;5032848;28;20049;-70
2022/01/29 06:26:49;;;;;;;15.02;6.95;;;;;;;0.15;nan;101626.00;5033559;28;20079;-70
2022/01/29 06:29:14;;;;;;;12.68;6.20;;;;;;;0.05;nan;101615.59;4995793;28;20041;-70
2022/01/29 06:31:39;;;;;;;16.65;6.63;;;;;;;0.17;nan;101634.47;5012131;28;20515;-70
2022/01/29 06:34:05;;;;;;;13.98;6.47;;;;;;;0.05;nan;101614.72;5031824;28;20037;-77
2022/01/29 06:36:30;;;;;;;13.90;6.97;;;;;;;0.13;nan;101623.53;5009240;28;20037;-70
2022/01/29 06:38:56;;;;;;;12.50;7.15;;;;;;;0.14;nan;101632.94;5032609;28;20079;-70
2022/01/29 06:41:21;;;;;;;13.50;7.00;;;;;;;0.20;nan;101632.44;5032479;28;20033;-70
2022/01/29 06:43:47;;;;;;;13.50;7.50;;;;;;;0.18;nan;101625.75;5032103;28;20056;-69
2022/01/29 06:46:12;;;;;;;15.77;7.50;;;;;;;0.18;nan;101616.19;4997232;28;20045;-71
2022/01/29 06:48:37;;;;;;;12.73;7.38;;;;;;;0.25;nan;101629.47;5033485;28;20029;-72
2022/01/29 06:51:03;;;;;;;13.75;6.68;;;;;;;0.24;nan;101616.63;5031854;28;20497;-70
2022/01/29 06:53:28;;;;;;;16.27;7.70;;;;;;;0.32;nan;101633.19;5032846;28;20033;-69
2022/01/29 06:55:53;;;;;;;14.40;6.57;;;;;;;0.38;nan;101642.22;5032821;28;20041;-70
2022/01/29 06:58:19;;;;;;;14.13;6.00;;;;;;;0.07;nan;101595.53;5032644;28;20022;-71
2022/01/29 07:00:44;;;;;;;9.85;5.53;;;;;;;0.24;nan;101627.00;5032655;28;20033;-71
2022/01/29 07:03:10;;;;;;;15.15;6.88;;;;;;;0.38;nan;101657.75;5032317;28;20064;-72
2022/01/29 07:05:35;;;;;;;18.65;7.28;;;;;;;0.36;nan;101657.06;5031724;28;20038;-72
2022/01/29 07:08:00;;;;;;;20.50;9.57;;;;;;;0.35;nan;101655.44;5013673;28;20554;-71
2022/01/29 07:10:26;;;;;;;22.60;11.48;;;;;;;0.28;nan;101643.94;5032028;28;20075;-71
2022/01/29 07:12:52;;;;;;;22.70;12.07;;;;;;;0.33;nan;101659.91;5013888;28;20090;-71
2022/01/29 07:15:17;;;;;;;29.95;12.55;;;;;;;0.36;nan;101675.19;5030626;28;20029;-71
2022/01/29 07:17:42;;;;;;;25.30;11.88;;;;;;;0.26;nan;101653.59;5033613;28;20071;-71
2022/01/29 07:20:08;;;;;;;21.90;10.18;;;;;;;0.39;nan;101677.56;5030003;28;20033;-71
2022/01/29 07:22:34;;;;;;;25.15;11.25;;;;;;;0.37;nan;101674.28;5028723;28;20501;-71
2022/01/29 07:25:00;;;;;;;32.13;11.48;;;;;;;0.31;nan;101664.41;5031365;28;20045;-71
2022/01/29 07:27:25;;;;;;;27.50;13.02;;;;;;;0.39;nan;101672.38;5029264;28;20036;-71
2022/01/29 07:29:50;;;;;;;22.08;11.45;;;;;;;0.45;nan;101678.81;5030815;28;20126;-71
2022/01/29 07:32:16;;;;;;;26.05;12.50;;;;;;;0.44;nan;101669.41;5013422;28;20170;-72
2022/01/29 07:34:41;;;;;;;18.13;9.90;;;;;;;0.51;nan;101678.31;5030734;28;20032;-71
2022/01/29 07:37:07;;;;;;;17.08;8.32;;;;;;;0.52;nan;101685.94;5031237;28;20076;-71
2022/01/29 07:39:33;;;;;;;14.18;7.95;;;;;;;0.53;nan;101687.59;5030935;28;20387;-72
2022/01/29 07:41:58;;;;;;;18.30;9.02;;;;;;;0.56;nan;101687.34;5026977;28;20045;-69
2022/01/29 07:44:25;;;;;;;21.70;10.32;;;;;;;0.58;nan;101685.44;5029551;28;20029;-68
2022/01/29 07:46:51;;;;;;;19.52;9.90;;;;;;;0.49;nan;101669.84;5027896;28;20519;-68
2022/01/29 07:49:16;;;;;;;21.35;10.85;;;;;;;0.62;nan;101686.00;5023406;28;20164;-70
2022/01/29 07:51:42;;;;;;;21.77;10.40;;;;;;;0.61;nan;101676.59;5008291;28;20414;-70
2022/01/29 07:54:08;;;;;;;29.17;11.93;;;;;;;0.54;nan;101670.28;5031016;28;20064;-71
2022/01/29 07:56:33;;;;;;;27.90;12.73;;;;;;;0.63;nan;101682.47;5026102;28;20506;-67
2022/01/29 07:58:59;;;;;;;22.85;10.68;;;;;;;0.68;nan;101701.06;5029590;28;20029;-71
2022/01/29 08:01:25;;;;;;;19.48;9.57;;;;;;;0.60;nan;101685.34;5028395;28;21230;-72
2022/01/29 08:03:51;;;;;;;16.73;8.10;;;;;;;-0.05;nan;101581.00;5012247;28;20383;-72
2022/01/29 08:06:18;;;;;;;17.77;8.00;;;;;;;0.70;nan;101698.34;5010961;28;20125;-70
2022/01/29 08:08:44;;;;;;;13.18;7.13;;;;;;;0.50;nan;101661.91;5029734;28;20037;-72
2022/01/29 08:11:11;;;;;;;17.90;7.80;;;;;;;0.62;nan;101684.25;5030146;28;20040;-70
2022/01/29 08:13:36;;;;;;;19.27;8.85;;;;;;;0.77;nan;101705.47;5029684;28;20036;-71
2022/01/29 08:16:03;;;;;;;17.40;8.25;;;;;;;0.82;nan;101700.72;5032534;28;20125;-70
2022/01/29 08:18:29;;;;;;;13.50;7.93;;;;;;;0.74;nan;101681.56;5034920;28;20388;-75
2022/01/29 08:20:54;;;;;;;16.80;7.68;;;;;;;0.92;nan;101705.97;5030917;28;20038;-70
2022/01/29 08:23:19;;;;;;;19.83;7.93;;;;;;;0.79;nan;101692.38;5031828;28;20109;-70
2022/01/29 08:25:45;;;;;;;17.15;8.32;;;;;;;0.75;nan;101686.63;4993954;28;20103;-70
2022/01/29 08:28:10;;;;;;;15.40;7.95;;;;;;;0.99;nan;101719.22;5023737;28;20021;-72
2022/01/29 08:30:36;;;;;;;19.25;8.63;;;;;;;0.88;nan;101704.56;5031389;28;20120;-78
2022/01/29 08:33:01;;;;;;;19.83;8.38;;;;;;;1.03;nan;101723.19;5033136;28;20383;-78
2022/01/29 08:35:27;;;;;;;15.75;8.70;;;;;;;0.90;nan;101705.25;5013884;28;20045;-77
2022/01/29 08:37:57;;;;;;;19.23;8.30;;;;;;;1.06;nan;101728.97;5031503;28;20113;-78
2022/01/29 08:40:22;;;;;;;15.70;7.82;;;;;;;1.12;nan;101731.97;5014110;28;20034;-77
2022/01/29 08:42:48;;;;;;;14.90;8.10;;;;;;;1.02;nan;101724.97;5031948;28;20033;-78
2022/01/29 08:45:13;;;;;;;17.58;9.13;;;;;;;1.17;nan;101746.19;5032054;28;20033;-78
2022/01/29 08:47:40;;;;;;;20.38;8.23;;;;;;;0.93;nan;101696.41;5013657;28;20033;-78
2022/01/29 08:50:06;;;;;;;18.85;8.65;;;;;;;1.07;nan;101722.00;5031798;28;20388;-77
2022/01/29 08:52:32;;;;;;;16.33;8.15;;;;;;;1.16;nan;101744.56;5031673;28;20043;-78
2022/01/29 08:54:58;;;;;;;17.23;8.48;;;;;;;1.16;nan;101741.16;5031541;28;20045;-77
2022/01/29 08:57:24;;;;;;;17.38;7.47;;;;;;;1.17;nan;101750.56;5031417;28;20065;-78
2022/01/29 08:59:50;;;;;;;16.40;8.10;;;;;;;1.00;nan;101718.28;5031842;28;20033;-78
2022/01/29 09:02:16;;;;;;;16.50;8.77;;;;;;;1.20;nan;101753.75;5030738;28;20044;-77
2022/01/29 09:04:41;;;;;;;16.10;8.55;;;;;;;1.18;nan;101757.41;5013907;28;20041;-77
2022/01/29 09:07:08;;;;;;;16.15;8.77;;;;;;;1.03;nan;101728.38;5032649;28;20033;-78
2022/01/29 09:09:33;;;;;;;18.17;9.38;;;;;;;1.26;nan;101758.38;5035376;28;20381;-76
2022/01/29 09:12:00;;;;;;;15.75;8.02;;;;;;;1.17;nan;101748.78;5015609;28;20052;-80
2022/01/29 09:14:26;;;;;;;20.30;11.27;;;;;;;1.28;nan;101763.47;5017877;28;20045;-79
2022/01/29 09:16:51;;;;;;;19.23;11.75;;;;;;;1.18;nan;101760.00;5018510;28;20048;-81
2022/01/29 09:19:17;;;;;;;15.55;8.55;;;;;;;1.26;nan;101757.56;5033846;28;20183;-75
2022/01/29 09:21:42;;;;;;;18.33;9.50;;;;;;;1.43;nan;101772.53;5032439;28;20495;-78
2022/01/29 09:24:07;;;;;;;17.73;9.88;;;;;;;1.35;nan;101732.63;5032272;28;20033;-74
2022/01/29 09:26:33;;;;;;;17.33;9.32;;;;;;;1.60;nan;101765.06;5032662;28;20645;-74
2022/01/29 09:28:59;;;;;;;16.42;8.80;;;;;;;1.62;nan;101763.16;5032683;28;20039;-75
2022/01/29 09:31:24;;;;;;;15.73;9.32;;;;;;;1.70;nan;101773.72;5032248;28;20491;-74
2022/01/29 09:33:49;;;;;;;16.73;9.05;;;;;;;1.77;nan;101768.81;5033443;28;20040;-74
2022/01/29 09:36:15;;;;;;;18.70;9.82;;;;;;;1.72;nan;101734.63;5023344;28;20115;-74
2022/01/29 09:38:40;;;;;;;24.75;9.85;;;;;;;2.15;nan;101767.22;5034004;28;20365;-70
2022/01/29 09:41:07;;;;;;;17.80;9.55;;;;;;;2.33;nan;101768.19;5034297;28;20112;-69
2022/01/29 09:43:33;;;;;;;16.65;8.13;;;;;;;2.58;nan;101771.19;5033786;28;20037;-69
2022/01/29 09:45:59;;;;;;;14.02;7.55;;;;;;;2.58;nan;101777.19;5033368;28;20164;-75
2022/01/29 09:48:28;;;;;;;17.00;9.45;;;;;;;2.64;nan;101779.25;5036946;28;20053;-72
2022/01/29 09:50:56;;;;;;;14.63;7.57;;;;;;;2.67;nan;101776.38;5033306;28;20084;-73
2022/01/29 09:53:22;;;;;;;15.02;8.80;;;;;;;2.66;nan;101768.69;5033599;28;20068;-74
2022/01/29 09:55:48;;;;;;;20.55;9.52;;;;;;;2.80;nan;101775.25;5035194;28;20072;-74
2022/01/29 09:58:14;;;;;;;15.50;8.13;;;;;;;3.05;nan;101777.25;5032355;28;20037;-74
2022/01/29 10:00:39;;;;;;;16.80;6.25;;;;;;;3.07;nan;101777.94;5029176;28;20046;-73
2022/01/29 10:03:11;;;;;;;12.13;6.25;;;;;;;2.91;nan;101781.13;5020179;28;20286;-73
2022/01/29 10:05:38;;;;;;;12.52;5.55;;;;;;;2.91;nan;101782.91;5032319;28;20037;-73
2022/01/29 10:08:05;;;;;;;11.68;6.57;;;;;;;2.92;nan;101781.94;5032559;28;20112;-75
2022/01/29 10:10:41;;;;;;;18.25;7.15;;;;;;;2.88;nan;101767.59;5028979;28;20041;-73
2022/01/29 10:13:22;;;;;;;16.13;8.00;;;;;;;3.12;nan;101783.53;5029770;28;20137;-75
2022/01/29 10:15:47;;;;;;;14.23;6.38;;;;;;;3.03;nan;101767.97;5012121;28;20395;-73
2022/01/29 10:18:20;;;;;;;13.60;6.63;;;;;;;2.88;nan;101760.59;5033776;28;20040;-74
2022/01/29 10:20:46;;;;;;;15.50;7.85;;;;;;;2.97;nan;101770.16;5010830;28;20041;-74
2022/01/29 10:23:11;;;;;;;12.75;7.13;;;;;;;2.84;nan;101763.63;5033270;28;20029;-74
2022/01/29 10:25:41;;;;;;;11.75;7.00;;;;;;;2.77;nan;101742.53;5030151;28;20044;-74
2022/01/29 10:28:14;;;;;;;13.40;6.78;;;;;;;2.94;nan;101769.63;5028928;28;20064;-74
2022/01/29 10:30:48;;;;;;;13.82;6.97;;;;;;;3.04;nan;101774.78;5031426;28;20052;-74
2022/01/29 10:33:28;;;;;;;11.23;6.55;;;;;;;3.12;nan;101773.13;5026195;28;20044;-74
2022/01/29 10:36:04;;;;;;;13.30;6.32;;;;;;;2.97;nan;101766.75;5010537;28;20033;-74
2022/01/29 10:38:41;;;;;;;11.90;6.88;;;;;;;2.95;nan;101773.88;5031262;28;20041;-75
2022/01/29 10:41:28;;;;;;;18.35;7.65;;;;;;;3.00;nan;101771.66;5030699;28;20033;-74
2022/01/29 10:46:44;;;;;;;;;;;;;;;3.08;nan;101755.34;5013909;28;20030;-73
2022/01/29 10:49:22;;;;;;;10.25;5.55;;;;;;;3.05;nan;101759.03;5023065;28;20335;-74
2022/01/29 10:51:58;;;;;;;12.88;6.28;;;;;;;2.95;nan;101751.28;5030842;28;20069;-74
2022/01/29 10:54:25;;;;;;;13.02;6.38;;;;;;;2.95;nan;101743.47;5030699;28;20038;-73
2022/01/29 10:56:54;;;;;;;12.63;6.93;;;;;;;2.97;nan;101743.34;5032723;28;20087;-73
2022/01/29 10:59:21;;;;;;;12.50;6.28;;;;;;;2.69;nan;101677.41;5014841;28;20483;-74
2022/01/29 11:01:55;;;;;;;14.23;6.45;;;;;;;3.20;nan;101743.78;5010608;28;20577;-73
2022/01/29 11:04:20;;;;;;;11.85;5.45;;;;;;;3.03;nan;101702.91;5028245;28;20541;-74
2022/01/29 11:06:48;;;;;;;12.18;5.13;;;;;;;3.23;nan;101727.88;5032014;28;20061;-74
2022/01/29 11:09:14;;;;;;;10.90;6.13;;;;;;;3.30;nan;101736.75;5032977;28;20033;-74
2022/01/29 11:11:40;;;;;;;13.90;6.95;;;;;;;3.24;nan;101729.53;5032981;28;20045;-74
2022/01/29 11:14:07;;;;;;;15.63;7.20;;;;;;;3.17;nan;101728.47;5013656;28;20499;-74
2022/01/29 11:16:33;;;;;;;14.32;7.18;;;;;;;3.18;nan;101725.72;5015091;28;20361;-74
2022/01/29 11:18:58;;;;;;;12.85;6.40;;;;;;;3.22;nan;101736.66;5031362;28;20462;-73
2022/01/29 11:21:24;;;;;;;10.65;5.40;;;;;;;3.29;nan;101753.34;5012127;28;20069;-71
2022/01/29 11:23:51;;;;;;;11.23;6.07;;;;;;;3.30;nan;101765.38;5029098;28;20518;-68
2022/01/29 11:26:16;;;;;;;9.48;5.50;;;;;;;3.26;nan;101756.25;5031972;28;20131;-70
2022/01/29 11:28:41;;;;;;;11.43;5.53;;;;;;;3.29;nan;101749.94;5032032;28;20481;-70
2022/01/29 11:31:13;;;;;;;13.80;6.20;;;;;;;3.29;nan;101755.13;5013797;28;20034;-73
2022/01/29 11:34:14;;;;;;;11.63;6.35;;;;;;;2.61;nan;101653.88;5031306;28;20087;-73
2022/01/29 11:36:48;;;;;;;12.90;6.55;;;;;;;3.37;nan;101744.81;4990081;28;20441;-73
2022/01/29 11:39:29;;;;;;;10.75;5.75;;;;;;;3.52;nan;101745.13;5010172;28;20116;-72
2022/01/29 11:42:12;;;;;;;10.65;5.60;;;;;;;3.68;nan;101744.50;5010243;28;20369;-73
2022/01/29 11:44:39;;;;;;;10.40;5.95;;;;;;;3.90;nan;101745.88;5028524;28;20048;-73
2022/01/29 11:47:26;;;;;;;13.40;5.70;;;;;;;4.20;nan;101744.72;5010228;28;20543;-75
2022/01/29 11:50:12;;;;;;;9.05;4.85;;;;;;;4.14;nan;101724.44;5031103;28;20555;-72
2022/01/29 11:52:56;;;;;;;9.85;5.18;;;;;;;4.14;nan;101729.66;5026024;28;20555;-73
2022/01/29 11:55:34;;;;;;;7.20;4.15;;;;;;;4.09;nan;101735.31;5031804;28;20041;-73
2022/01/29 11:58:21;;;;;;;6.50;4.35;;;;;;;4.12;nan;101731.56;5031730;28;20391;-75
2022/01/29 12:01:01;;;;;;;9.52;5.30;;;;;;;4.06;nan;101730.41;5031809;28;20048;-73